Mukaddes Kalkavan — V7AP5 — position and weather

sailwx.info

Track history (hours):
 
Tides and Currents Weather Stations Pressure Air Temp Water Temp Dewpoint Dewpoint Depression Visibility Wind Speed Wind Dir Waves Ship Positions

Mukaddes Kalkavan

Last reported at 2018-Aug-20 15:20 UTC. Time now 2018-Aug-20 16:19 UTC.
Position N 32°02' W 080°54'.

Length 182 m; draft 9 m.

Type: Ship (hazmat cat A). MMSI: 538005042.

Date/timePositionNaut miles runAvg speedWind from/ knotsBaromVisibWave heightAir tempDewpointWater temp
2018-Aug-20 15:20N 32°02' W 080°54'614.1
2018-Aug-20 14:54N 31°60' W 080°47'27412.3
2018-Aug-19 16:36N 34°24' W 076°08'2213.7
2018-Aug-19 14:58N 34°38' W 075°47'13710.6
2018-Aug-19 02:00N 36°53' W 076°20'1 2.2
2018-Aug-19 01:29N 36°51' W 076°20'0 0.0
2018-Aug-19 00:58N 36°51' W 076°20'0 0.0
2018-Aug-19 00:28N 36°51' W 076°20'0 0.0
2018-Aug-18 23:58N 36°51' W 076°20'0 0.0
2018-Aug-18 23:28N 36°51' W 076°20'0 0.0
2018-Aug-18 23:00N 36°51' W 076°20'0 0.0
2018-Aug-18 22:30N 36°51' W 076°20'0 0.0
2018-Aug-18 22:00N 36°51' W 076°20'0 0.0
2018-Aug-18 21:30N 36°51' W 076°20'0 0.0
2018-Aug-18 21:00N 36°51' W 076°20'0 0.0
2018-Aug-18 20:29N 36°51' W 076°20'0 0.0
2018-Aug-18 19:59N 36°51' W 076°20'0 0.0
2018-Aug-18 19:29N 36°51' W 076°20'0 0.0
2018-Aug-18 18:59N 36°51' W 076°20'0 0.0
2018-Aug-18 18:29N 36°51' W 076°20'0 0.0
2018-Aug-18 17:58N 36°51' W 076°20'0 0.0
2018-Aug-18 17:28N 36°51' W 076°20'0 0.0
2018-Aug-18 16:58N 36°51' W 076°20'0 0.0
2018-Aug-18 16:28N 36°51' W 076°20'0 0.0
2018-Aug-18 16:00N 36°51' W 076°20'0 0.0
2018-Aug-18 15:30N 36°51' W 076°20'0 0.0
2018-Aug-18 15:00N 36°51' W 076°20'0 0.0
2018-Aug-18 14:30N 36°51' W 076°20'0 0.0
2018-Aug-18 14:00N 36°51' W 076°20'0 0.0
2018-Aug-18 13:29N 36°51' W 076°20'0 0.0
2018-Aug-18 13:00N 36°51' W 076°20'2 3.6
2018-Aug-18 12:31N 36°53' W 076°20'5 9.9
2018-Aug-18 12:01N 36°58' W 076°20'13912.3
2018-Aug-18 00:44N 38°38' W 074°18'415.1
2018-Aug-18 00:27N 38°42' W 074°16'715.1
2018-Aug-18 00:00N 38°48' W 074°11'715.0
2018-Aug-17 23:30N 38°55' W 074°08'814.9
2018-Aug-17 23:00N 39°02' W 074°06'915.1
2018-Aug-17 22:24N 39°11' W 074°03'1115.1
2018-Aug-17 21:39N 39°22' W 073°59'514.7
2018-Aug-17 21:21N 39°26' W 073°58'714.6
2018-Aug-17 20:52N 39°33' W 073°56'614.7
2018-Aug-17 20:28N 39°38' W 073°54'814.7
2018-Aug-17 19:54N 39°47' W 073°51'614.9
2018-Aug-17 19:28N 39°53' W 073°50'815.0
2018-Aug-17 18:58N 40°01' W 073°50'815.1
2018-Aug-17 18:25N 40°09' W 073°49'815.2
2018-Aug-17 17:55N 40°17' W 073°49'814.0
2018-Aug-17 17:20N 40°25' W 073°49'1110.7
2018-Aug-17 16:17N 40°31' W 074°00'412.9
2018-Aug-17 16:00N 40°35' W 074°02'5 9.5
2018-Aug-17 15:31N 40°39' W 074°05'3 5.9
2018-Aug-17 15:00N 40°39' W 074°09'1 0.6
2018-Aug-17 14:00N 40°40' W 074°09'0 0.0
2018-Aug-17 13:30N 40°40' W 074°09'0 0.0
2018-Aug-17 12:57N 40°40' W 074°09'0 0.0
2018-Aug-17 12:23N 40°40' W 074°09'0 0.0
2018-Aug-17 11:59N 40°40' W 074°09'0 0.0
2018-Aug-17 11:29N 40°40' W 074°09'0 0.0
2018-Aug-17 10:53N 40°40' W 074°09'0 0.0
2018-Aug-17 10:29N 40°40' W 074°09'0 0.0
2018-Aug-17 09:58N 40°40' W 074°09'0 0.0
2018-Aug-17 09:25N 40°40' W 074°09'0 0.0
2018-Aug-17 08:58N 40°40' W 074°09'0 0.0
2018-Aug-17 08:22N 40°40' W 074°09'0 0.0
2018-Aug-17 07:58N 40°40' W 074°09'0 0.0
2018-Aug-17 07:30N 40°40' W 074°09'0 0.0
2018-Aug-17 07:00N 40°40' W 074°09'0 0.0
2018-Aug-17 06:30N 40°40' W 074°09'0 0.0
2018-Aug-17 06:00N 40°40' W 074°09'0 0.0
2018-Aug-17 05:29N 40°40' W 074°09'0 0.0
2018-Aug-17 04:59N 40°40' W 074°09'0 0.0
2018-Aug-17 04:29N 40°40' W 074°09'0 0.0
2018-Aug-17 03:59N 40°40' W 074°09'0 0.0
2018-Aug-17 03:29N 40°40' W 074°09'0 0.0
2018-Aug-17 02:58N 40°40' W 074°09'0 0.0
2018-Aug-17 02:28N 40°40' W 074°09'0 0.0
2018-Aug-17 01:58N 40°40' W 074°09'0 0.0
2018-Aug-17 01:28N 40°40' W 074°09'0 0.0
2018-Aug-17 01:01N 40°40' W 074°09'0 0.0
2018-Aug-17 00:30N 40°40' W 074°09'0 0.0
2018-Aug-16 23:57N 40°40' W 074°09'0 0.0
2018-Aug-16 23:30N 40°40' W 074°09'0 0.0
2018-Aug-16 23:00N 40°40' W 074°09'0 0.0
2018-Aug-16 22:29N 40°40' W 074°09'0 0.0
2018-Aug-16 21:59N 40°40' W 074°09'0 0.0
2018-Aug-16 21:29N 40°40' W 074°09'0 0.0
2018-Aug-16 20:59N 40°40' W 074°09'0 0.0
2018-Aug-16 20:26N 40°40' W 074°09'0 0.0
2018-Aug-16 19:58N 40°40' W 074°09'0 0.0
2018-Aug-16 19:28N 40°40' W 074°09'0 0.0
2018-Aug-16 18:58N 40°40' W 074°09'0 0.0
2018-Aug-16 18:28N 40°40' W 074°09'0 0.0
2018-Aug-16 18:01N 40°40' W 074°09'0 0.0
2018-Aug-16 17:27N 40°40' W 074°09'0 0.0
2018-Aug-16 17:00N 40°40' W 074°09'0 0.0
2018-Aug-16 16:30N 40°40' W 074°09'0 0.0
2018-Aug-16 16:00N 40°40' W 074°09'0 0.0
2018-Aug-16 15:29N 40°40' W 074°09'0 0.0
2018-Aug-16 14:59N 40°40' W 074°09'0 0.0
2018-Aug-16 14:29N 40°40' W 074°09'0 0.0
2018-Aug-16 13:59N 40°40' W 074°09'0 0.0
2018-Aug-16 13:29N 40°40' W 074°09'0 0.0
2018-Aug-16 12:55N 40°40' W 074°09'0 0.0
2018-Aug-16 12:25N 40°40' W 074°09'0 0.0
2018-Aug-16 11:56N 40°40' W 074°09'0 0.4
2018-Aug-16 11:30N 40°40' W 074°09'0 0.1
2018-Aug-16 11:01N 40°40' W 074°09'0 0.2
2018-Aug-16 10:31N 40°40' W 074°09'0 0.1
2018-Aug-16 10:00N 40°40' W 074°09'1 1.8
2018-Aug-16 09:31N 40°39' W 074°09'3 5.9
2018-Aug-16 09:00N 40°39' W 074°05'3 5.0
2018-Aug-16 08:30N 40°37' W 074°03'4 8.3
2018-Aug-16 08:00N 40°33' W 074°02'611.6
2018-Aug-16 07:30N 40°30' W 073°56'  
Track history (hours):
 
Tides and Currents Weather Stations Pressure Air Temp Water Temp Dewpoint Dewpoint Depression Visibility Wind Speed Wind Dir Waves Ship Positions

Mukaddes Kalkavan

Last reported at 2018-Aug-20 15:20 UTC. Time now 2018-Aug-20 16:19 UTC.
Position N 32°02' W 080°54'.

Length 182 m; draft 9 m.

Type: Ship (hazmat cat A). MMSI: 538005042.

Date/timePositionNaut miles runAvg speedWind from/ knotsBaromVisibWave heightAir tempDewpointWater temp
2018-Aug-20 15:20N 32°02' W 080°54'614.1
2018-Aug-20 14:54N 31°60' W 080°47'27412.3
2018-Aug-19 16:36N 34°24' W 076°08'2213.7
2018-Aug-19 14:58N 34°38' W 075°47'13710.6
2018-Aug-19 02:00N 36°53' W 076°20'1 2.2
2018-Aug-19 01:29N 36°51' W 076°20'0 0.0
2018-Aug-19 00:58N 36°51' W 076°20'0 0.0
2018-Aug-19 00:28N 36°51' W 076°20'0 0.0
2018-Aug-18 23:58N 36°51' W 076°20'0 0.0
2018-Aug-18 23:28N 36°51' W 076°20'0 0.0
2018-Aug-18 23:00N 36°51' W 076°20'0 0.0
2018-Aug-18 22:30N 36°51' W 076°20'0 0.0
2018-Aug-18 22:00N 36°51' W 076°20'0 0.0
2018-Aug-18 21:30N 36°51' W 076°20'0 0.0
2018-Aug-18 21:00N 36°51' W 076°20'0 0.0
2018-Aug-18 20:29N 36°51' W 076°20'0 0.0
2018-Aug-18 19:59N 36°51' W 076°20'0 0.0
2018-Aug-18 19:29N 36°51' W 076°20'0 0.0
2018-Aug-18 18:59N 36°51' W 076°20'0 0.0
2018-Aug-18 18:29N 36°51' W 076°20'0 0.0
2018-Aug-18 17:58N 36°51' W 076°20'0 0.0
2018-Aug-18 17:28N 36°51' W 076°20'0 0.0
2018-Aug-18 16:58N 36°51' W 076°20'0 0.0
2018-Aug-18 16:28N 36°51' W 076°20'0 0.0
2018-Aug-18 16:00N 36°51' W 076°20'0 0.0
2018-Aug-18 15:30N 36°51' W 076°20'0 0.0
2018-Aug-18 15:00N 36°51' W 076°20'0 0.0
2018-Aug-18 14:30N 36°51' W 076°20'0 0.0
2018-Aug-18 14:00N 36°51' W 076°20'0 0.0
2018-Aug-18 13:29N 36°51' W 076°20'0 0.0
2018-Aug-18 13:00N 36°51' W 076°20'2 3.6
2018-Aug-18 12:31N 36°53' W 076°20'5 9.9
2018-Aug-18 12:01N 36°58' W 076°20'13912.3
2018-Aug-18 00:44N 38°38' W 074°18'415.1
2018-Aug-18 00:27N 38°42' W 074°16'715.1
2018-Aug-18 00:00N 38°48' W 074°11'715.0
2018-Aug-17 23:30N 38°55' W 074°08'814.9
2018-Aug-17 23:00N 39°02' W 074°06'915.1
2018-Aug-17 22:24N 39°11' W 074°03'1115.1
2018-Aug-17 21:39N 39°22' W 073°59'514.7
2018-Aug-17 21:21N 39°26' W 073°58'714.6
2018-Aug-17 20:52N 39°33' W 073°56'614.7
2018-Aug-17 20:28N 39°38' W 073°54'814.7
2018-Aug-17 19:54N 39°47' W 073°51'614.9
2018-Aug-17 19:28N 39°53' W 073°50'815.0
2018-Aug-17 18:58N 40°01' W 073°50'815.1
2018-Aug-17 18:25N 40°09' W 073°49'815.2
2018-Aug-17 17:55N 40°17' W 073°49'814.0
2018-Aug-17 17:20N 40°25' W 073°49'1110.7
2018-Aug-17 16:17N 40°31' W 074°00'412.9
2018-Aug-17 16:00N 40°35' W 074°02'5 9.5
2018-Aug-17 15:31N 40°39' W 074°05'3 5.9
2018-Aug-17 15:00N 40°39' W 074°09'1 0.6
2018-Aug-17 14:00N 40°40' W 074°09'0 0.0
2018-Aug-17 13:30N 40°40' W 074°09'0 0.0
2018-Aug-17 12:57N 40°40' W 074°09'0 0.0
2018-Aug-17 12:23N 40°40' W 074°09'0 0.0
2018-Aug-17 11:59N 40°40' W 074°09'0 0.0
2018-Aug-17 11:29N 40°40' W 074°09'0 0.0
2018-Aug-17 10:53N 40°40' W 074°09'0 0.0
2018-Aug-17 10:29N 40°40' W 074°09'0 0.0
2018-Aug-17 09:58N 40°40' W 074°09'0 0.0
2018-Aug-17 09:25N 40°40' W 074°09'0 0.0
2018-Aug-17 08:58N 40°40' W 074°09'0 0.0
2018-Aug-17 08:22N 40°40' W 074°09'0 0.0
2018-Aug-17 07:58N 40°40' W 074°09'0 0.0
2018-Aug-17 07:30N 40°40' W 074°09'0 0.0
2018-Aug-17 07:00N 40°40' W 074°09'0 0.0
2018-Aug-17 06:30N 40°40' W 074°09'0 0.0
2018-Aug-17 06:00N 40°40' W 074°09'0 0.0
2018-Aug-17 05:29N 40°40' W 074°09'0 0.0
2018-Aug-17 04:59N 40°40' W 074°09'0 0.0
2018-Aug-17 04:29N 40°40' W 074°09'0 0.0
2018-Aug-17 03:59N 40°40' W 074°09'0 0.0
2018-Aug-17 03:29N 40°40' W 074°09'0 0.0
2018-Aug-17 02:58N 40°40' W 074°09'0 0.0
2018-Aug-17 02:28N 40°40' W 074°09'0 0.0
2018-Aug-17 01:58N 40°40' W 074°09'0 0.0
2018-Aug-17 01:28N 40°40' W 074°09'0 0.0
2018-Aug-17 01:01N 40°40' W 074°09'0 0.0
2018-Aug-17 00:30N 40°40' W 074°09'0 0.0
2018-Aug-16 23:57N 40°40' W 074°09'0 0.0
2018-Aug-16 23:30N 40°40' W 074°09'0 0.0
2018-Aug-16 23:00N 40°40' W 074°09'0 0.0
2018-Aug-16 22:29N 40°40' W 074°09'0 0.0
2018-Aug-16 21:59N 40°40' W 074°09'0 0.0
2018-Aug-16 21:29N 40°40' W 074°09'0 0.0
2018-Aug-16 20:59N 40°40' W 074°09'0 0.0
2018-Aug-16 20:26N 40°40' W 074°09'0 0.0
2018-Aug-16 19:58N 40°40' W 074°09'0 0.0
2018-Aug-16 19:28N 40°40' W 074°09'0 0.0
2018-Aug-16 18:58N 40°40' W 074°09'0 0.0
2018-Aug-16 18:28N 40°40' W 074°09'0 0.0
2018-Aug-16 18:01N 40°40' W 074°09'0 0.0
2018-Aug-16 17:27N 40°40' W 074°09'0 0.0
2018-Aug-16 17:00N 40°40' W 074°09'0 0.0
2018-Aug-16 16:30N 40°40' W 074°09'0 0.0
2018-Aug-16 16:00N 40°40' W 074°09'0 0.0
2018-Aug-16 15:29N 40°40' W 074°09'0 0.0
2018-Aug-16 14:59N 40°40' W 074°09'0 0.0
2018-Aug-16 14:29N 40°40' W 074°09'0 0.0
2018-Aug-16 13:59N 40°40' W 074°09'0 0.0
2018-Aug-16 13:29N 40°40' W 074°09'0 0.0
2018-Aug-16 12:55N 40°40' W 074°09'0 0.0
2018-Aug-16 12:25N 40°40' W 074°09'0 0.0
2018-Aug-16 11:56N 40°40' W 074°09'0 0.4
2018-Aug-16 11:30N 40°40' W 074°09'0 0.1
2018-Aug-16 11:01N 40°40' W 074°09'0 0.2
2018-Aug-16 10:31N 40°40' W 074°09'0 0.1
2018-Aug-16 10:00N 40°40' W 074°09'1 1.8
2018-Aug-16 09:31N 40°39' W 074°09'3 5.9
2018-Aug-16 09:00N 40°39' W 074°05'3 5.0
2018-Aug-16 08:30N 40°37' W 074°03'4 8.3
2018-Aug-16 08:00N 40°33' W 074°02'611.6
2018-Aug-16 07:30N 40°30' W 073°56'  

Dump ship's entire track history